Terminal Aerodrome Forecast
Issued by NWS Charleston, WV

Current Version | Previous Version | Graphics & Text | Print | Product List | Glossary On
Versions: 1 2 3 4 5 6 7 8 9 10 11 12 13 14 15 16 17 18 19 20 21 22
195
FTUS41 KRLX 020904 AAA
TAFPKB
TAF AMD
KPKB 020904Z 0209/0306 VRB03KT P6SM OVC035
     FM021200 24006KT P6SM OVC030
     FM021500 25007G14KT P6SM OVC020
     FM022100 27005KT P6SM BKN045=

USA.gov is the U.S. government's official web portal to all federal, state and local government web resources and services.